createdAt,value
2022-12-08T00:01:39.545Z,40.40
2022-12-08T00:04:07.634Z,39.40
2022-12-08T00:06:40.728Z,37.20
2022-12-08T00:09:36.400Z,39.60
2022-12-08T00:12:11.034Z,35.00
2022-12-08T00:14:43.928Z,34.20
2022-12-08T00:17:13.415Z,44.40
2022-12-08T00:19:42.348Z,39.80
2022-12-08T00:22:11.964Z,38.00
2022-12-08T00:24:40.966Z,39.70
2022-12-08T00:27:11.110Z,36.60
2022-12-08T00:29:38.761Z,37.90
2022-12-08T00:32:06.647Z,37.70
2022-12-08T00:34:34.531Z,41.80
2022-12-08T00:37:02.241Z,40.80
2022-12-08T00:39:29.873Z,43.40
2022-12-08T00:41:57.447Z,33.90
2022-12-08T00:44:25.137Z,42.80
2022-12-08T00:46:52.814Z,38.60
2022-12-08T00:49:21.225Z,39.30
2022-12-08T00:51:49.197Z,39.20
2022-12-08T00:54:17.604Z,35.30
2022-12-08T00:56:45.382Z,41.60
2022-12-08T00:59:13.080Z,38.60
2022-12-08T01:01:41.214Z,44.20
2022-12-08T01:04:12.734Z,41.20
2022-12-08T01:06:40.336Z,39.60
2022-12-08T01:09:08.904Z,43.10
2022-12-08T01:11:36.791Z,40.50
2022-12-08T01:14:04.530Z,37.30
2022-12-08T01:16:35.238Z,39.60
2022-12-08T01:19:03.664Z,43.40
2022-12-08T01:21:31.275Z,37.70
2022-12-08T01:24:01.890Z,36.50
2022-12-08T01:26:29.503Z,38.80
2022-12-08T01:28:57.075Z,34.00
2022-12-08T01:31:24.713Z,39.30
2022-12-08T01:33:52.749Z,38.50
2022-12-08T01:36:25.964Z,39.80
2022-12-08T01:38:54.843Z,39.80
2022-12-08T01:41:25.174Z,32.50
2022-12-08T01:44:04.081Z,39.60
2022-12-08T01:46:34.039Z,37.70
2022-12-08T01:49:11.506Z,35.60
2022-12-08T01:51:46.860Z,38.00
2022-12-08T01:54:15.487Z,36.40
2022-12-08T01:56:52.582Z,39.20
2022-12-08T01:59:20.291Z,38.00
2022-12-08T02:01:48.036Z,40.30
2022-12-08T02:04:15.715Z,37.40
2022-12-08T02:06:46.702Z,35.70
2022-12-08T02:09:14.570Z,36.80
2022-12-08T02:11:42.146Z,37.70
2022-12-08T02:14:13.633Z,33.70
2022-12-08T02:16:50.451Z,30.70
2022-12-08T02:19:49.475Z,38.10
2022-12-08T02:22:26.366Z,33.00
2022-12-08T02:25:02.093Z,36.70
2022-12-08T02:27:48.297Z,35.40
2022-12-08T02:30:19.835Z,34.30
2022-12-08T02:36:00.301Z,30.90
2022-12-08T02:39:00.086Z,30.20
2022-12-08T02:41:37.333Z,30.70
2022-12-08T02:44:20.044Z,31.70
2022-12-08T02:46:54.065Z,31.90
2022-12-08T02:49:21.721Z,28.60
2022-12-08T02:51:49.404Z,34.20
2022-12-08T02:54:17.225Z,33.10
2022-12-08T02:57:30.145Z,32.50
2022-12-08T03:00:08.883Z,36.50
2022-12-08T03:02:56.384Z,31.20
2022-12-08T03:05:45.449Z,31.40
2022-12-08T03:08:13.171Z,32.50
2022-12-08T03:10:43.051Z,28.60
2022-12-08T03:13:20.651Z,32.30
2022-12-08T03:15:51.110Z,30.00
2022-12-08T03:18:24.070Z,31.00
2022-12-08T03:20:52.123Z,32.20
2022-12-08T03:23:21.215Z,34.80
2022-12-08T03:25:56.894Z,31.10
2022-12-08T03:28:25.273Z,35.90
2022-12-08T03:30:57.118Z,34.90
2022-12-08T03:33:30.472Z,33.00
2022-12-08T03:36:01.666Z,28.80
2022-12-08T03:38:40.481Z,36.80
2022-12-08T03:41:08.115Z,33.50
2022-12-08T03:43:36.060Z,31.50
2022-12-08T03:46:03.733Z,34.00
2022-12-08T03:48:31.368Z,32.10
2022-12-08T03:50:58.920Z,35.20
2022-12-08T03:53:26.523Z,33.20
2022-12-08T03:55:54.553Z,32.90
2022-12-08T03:58:22.162Z,32.80
2022-12-08T04:00:49.789Z,35.50
2022-12-08T04:03:17.447Z,32.00
2022-12-08T04:05:45.114Z,28.50
2022-12-08T04:08:12.740Z,37.00
2022-12-08T04:10:40.340Z,26.40
2022-12-08T04:13:07.933Z,35.80
2022-12-08T04:15:35.550Z,32.40
2022-12-08T04:18:03.334Z,30.80
2022-12-08T04:20:30.904Z,31.80
2022-12-08T04:22:58.473Z,25.60
2022-12-08T04:25:26.184Z,28.80
2022-12-08T04:27:53.748Z,32.00
2022-12-08T04:30:23.184Z,35.10
2022-12-08T04:32:50.773Z,34.10
2022-12-08T04:35:18.475Z,29.80
2022-12-08T04:37:46.083Z,35.40
2022-12-08T04:40:14.535Z,34.70
2022-12-08T04:42:42.178Z,30.40
2022-12-08T04:45:10.200Z,33.10
2022-12-08T04:47:37.868Z,30.30
2022-12-08T04:50:06.608Z,36.90
2022-12-08T04:52:34.477Z,28.90
2022-12-08T04:55:02.670Z,30.90
2022-12-08T04:57:30.359Z,39.80
2022-12-08T04:59:58.034Z,34.60
2022-12-08T05:02:26.044Z,32.50
2022-12-08T05:04:53.726Z,26.00
2022-12-08T05:07:21.393Z,28.60
2022-12-08T05:09:49.005Z,33.10
2022-12-08T05:12:16.763Z,30.30
2022-12-08T05:14:44.414Z,31.30
2022-12-08T05:17:11.993Z,32.00
2022-12-08T05:19:39.900Z,27.50
2022-12-08T05:22:07.506Z,24.30
2022-12-08T05:24:35.127Z,30.30
2022-12-08T05:27:03.056Z,29.40
2022-12-08T05:29:30.662Z,37.10
2022-12-08T05:31:58.385Z,30.50
2022-12-08T05:34:26.163Z,34.50
2022-12-08T05:36:53.887Z,26.30
2022-12-08T05:39:21.463Z,32.30
2022-12-08T05:41:49.039Z,28.50
2022-12-08T05:44:16.661Z,29.30
2022-12-08T05:46:44.333Z,30.50
2022-12-08T05:49:11.925Z,30.70
2022-12-08T05:51:39.673Z,29.50
2022-12-08T05:54:07.270Z,28.40
2022-12-08T05:56:34.944Z,33.00
2022-12-08T05:59:06.069Z,24.40
2022-12-08T06:01:34.103Z,31.20
2022-12-08T06:04:03.234Z,29.60
2022-12-08T06:06:36.236Z,24.90
2022-12-08T06:09:05.477Z,24.70
2022-12-08T06:11:33.582Z,27.20
2022-12-08T06:14:01.812Z,28.80
2022-12-08T06:16:30.243Z,28.80
2022-12-08T06:18:58.418Z,31.00
2022-12-08T06:21:26.161Z,27.80
2022-12-08T06:23:54.600Z,32.40
2022-12-08T06:26:23.151Z,31.10
2022-12-08T06:28:51.084Z,28.20
2022-12-08T06:31:24.586Z,28.50
2022-12-08T06:33:53.686Z,30.90
2022-12-08T06:36:24.274Z,23.70
2022-12-08T06:38:51.993Z,29.00
2022-12-08T06:41:19.654Z,31.50
2022-12-08T06:43:47.420Z,34.20
2022-12-08T06:46:17.958Z,32.40
2022-12-08T06:48:45.935Z,33.40
2022-12-08T06:51:19.768Z,29.00
2022-12-08T06:53:50.506Z,30.90
2022-12-08T06:56:18.215Z,32.90
2022-12-08T06:58:50.557Z,33.70
2022-12-08T07:01:20.081Z,36.20
2022-12-08T07:03:48.032Z,38.20
2022-12-08T07:06:19.277Z,40.00
2022-12-08T07:08:47.131Z,47.10
2022-12-08T07:11:20.986Z,46.30
2022-12-08T07:13:49.870Z,47.20
2022-12-08T07:16:17.563Z,49.70
2022-12-08T07:18:45.183Z,47.60
2022-12-08T07:21:14.068Z,48.60
2022-12-08T07:23:42.358Z,46.50
2022-12-08T07:26:12.329Z,44.40
2022-12-08T07:28:41.503Z,45.30
2022-12-08T07:31:21.535Z,45.20
2022-12-08T07:33:49.827Z,38.40
2022-12-08T07:36:17.600Z,41.30
2022-12-08T07:38:45.496Z,40.30
2022-12-08T07:41:17.878Z,36.90
2022-12-08T07:43:45.632Z,37.80
2022-12-08T07:46:19.307Z,30.60
2022-12-08T07:48:47.798Z,31.20
2022-12-08T07:51:16.547Z,34.10
2022-12-08T07:53:51.565Z,33.40
2022-12-08T07:56:21.926Z,35.80
2022-12-08T07:58:50.010Z,28.90
2022-12-08T08:01:29.524Z,27.30
2022-12-08T08:03:59.307Z,28.80
2022-12-08T08:06:27.465Z,32.90
2022-12-08T08:08:55.184Z,35.30
2022-12-08T08:11:23.903Z,38.30
2022-12-08T08:13:51.893Z,33.00
2022-12-08T08:16:20.413Z,33.30
2022-12-08T08:18:50.124Z,34.80
2022-12-08T08:24:07.344Z,32.00
2022-12-08T08:26:36.670Z,32.00
2022-12-08T08:29:04.291Z,36.60
2022-12-08T08:31:31.890Z,29.70
2022-12-08T08:33:59.528Z,33.60
2022-12-08T08:36:27.100Z,30.40
2022-12-08T08:38:54.765Z,33.30
2022-12-08T08:41:22.349Z,30.40
2022-12-08T08:43:49.908Z,30.80
2022-12-08T08:46:17.534Z,28.60
2022-12-08T08:48:45.310Z,24.90
2022-12-08T08:51:14.258Z,26.70
2022-12-08T08:53:42.526Z,20.80
2022-12-08T08:56:19.108Z,23.00
2022-12-08T08:58:50.724Z,22.50
2022-12-08T09:03:48.010Z,22.80
2022-12-08T09:06:16.739Z,24.00
2022-12-08T09:08:45.284Z,20.00
2022-12-08T09:11:13.499Z,16.50
2022-12-08T09:13:41.609Z,21.50
2022-12-08T09:16:11.455Z,12.80
2022-12-08T09:18:39.110Z,20.40
2022-12-08T09:21:13.714Z,21.50
2022-12-08T09:23:41.298Z,21.60
2022-12-08T09:26:09.475Z,18.90
2022-12-08T09:28:37.604Z,19.50
2022-12-08T09:31:05.415Z,16.30
2022-12-08T09:33:33.022Z,17.70
2022-12-08T09:36:04.696Z,23.60
2022-12-08T09:38:32.619Z,18.50
2022-12-08T09:41:02.835Z,20.50
2022-12-08T09:43:48.692Z,20.40
2022-12-08T09:46:17.001Z,21.00
2022-12-08T09:48:51.309Z,22.00
2022-12-08T09:51:19.068Z,20.20
2022-12-08T09:53:52.572Z,20.10
2022-12-08T09:56:26.751Z,17.90
2022-12-08T09:59:03.628Z,22.20
2022-12-08T10:01:33.575Z,20.90
2022-12-08T10:04:01.953Z,18.10
2022-12-08T10:07:11.237Z,20.80
2022-12-08T10:09:45.655Z,18.50
2022-12-08T10:12:26.118Z,20.80
2022-12-08T10:14:56.769Z,18.70
2022-12-08T10:17:48.097Z,20.00
2022-12-08T10:20:19.718Z,20.30
2022-12-08T10:22:57.577Z,21.00
2022-12-08T10:25:46.916Z,23.90
2022-12-08T10:28:15.262Z,20.50
2022-12-08T10:30:43.262Z,21.70
2022-12-08T10:33:21.762Z,19.70
2022-12-08T10:35:54.556Z,20.50
2022-12-08T10:38:26.881Z,18.20
2022-12-08T10:41:03.652Z,23.50
2022-12-08T10:43:32.824Z,24.70
2022-12-08T10:46:21.782Z,29.90
2022-12-08T10:49:10.820Z,40.40
2022-12-08T10:51:41.212Z,45.50
2022-12-08T10:54:35.775Z,20.70
2022-12-08T10:57:03.558Z,21.90
2022-12-08T10:59:33.959Z,22.50
2022-12-08T11:02:01.705Z,20.00
2022-12-08T11:04:36.353Z,21.60
2022-12-08T11:07:06.660Z,20.90
2022-12-08T11:09:47.315Z,18.70
2022-12-08T11:12:16.140Z,20.30
2022-12-08T11:14:43.664Z,17.80
2022-12-08T11:17:23.581Z,24.20
2022-12-08T11:20:09.734Z,21.10
2022-12-08T11:22:43.157Z,19.90
2022-12-08T11:25:25.483Z,20.50
2022-12-08T11:28:02.352Z,21.20
2022-12-08T11:30:44.711Z,18.90
2022-12-08T11:33:16.153Z,24.90
2022-12-08T11:36:13.378Z,21.70
2022-12-08T11:38:44.348Z,18.80
2022-12-08T11:41:17.067Z,21.00
2022-12-08T11:43:58.481Z,21.80
2022-12-08T11:46:34.836Z,18.50
2022-12-08T11:49:09.342Z,21.50
2022-12-08T11:51:45.892Z,18.20
2022-12-08T11:54:26.191Z,21.90
2022-12-08T11:56:59.454Z,21.70
2022-12-08T11:59:57.230Z,20.70
2022-12-08T12:02:31.140Z,20.40
2022-12-08T12:05:08.264Z,19.80
2022-12-08T12:08:02.540Z,43.90
2022-12-08T12:10:30.223Z,29.40
2022-12-08T12:13:35.980Z,25.30
2022-12-08T12:16:25.486Z,25.10
2022-12-08T12:19:10.016Z,43.40
2022-12-08T12:21:52.629Z,22.40
2022-12-08T12:24:30.483Z,22.50
2022-12-08T12:27:07.126Z,21.80
2022-12-08T12:29:38.238Z,20.20
2022-12-08T12:32:09.039Z,22.80
2022-12-08T12:34:46.871Z,18.60
2022-12-08T12:37:18.572Z,22.00
2022-12-08T12:39:52.153Z,20.70
2022-12-08T12:43:01.567Z,23.90
2022-12-08T12:45:33.140Z,20.30
2022-12-08T12:48:00.935Z,20.10
2022-12-08T12:50:34.779Z,18.60
2022-12-08T12:53:17.568Z,20.70
2022-12-08T12:55:56.944Z,20.40
2022-12-08T12:58:27.542Z,18.60
2022-12-08T13:01:10.301Z,25.30
2022-12-08T13:03:50.466Z,20.60
2022-12-08T13:06:35.614Z,21.30
2022-12-08T13:09:04.221Z,21.30
2022-12-08T13:11:48.076Z,15.70
2022-12-08T13:14:34.626Z,18.70
2022-12-08T13:17:07.790Z,26.40
2022-12-08T13:19:38.736Z,38.80
2022-12-08T13:22:43.975Z,32.70
2022-12-08T13:25:39.357Z,17.80
2022-12-08T13:28:16.110Z,16.80
2022-12-08T13:30:53.620Z,18.60
2022-12-08T13:33:50.905Z,17.70
2022-12-08T13:36:28.878Z,12.60
2022-12-08T13:38:58.083Z,17.60
2022-12-08T13:41:40.094Z,17.80
2022-12-08T13:45:11.305Z,16.50
2022-12-08T13:56:59.645Z,16.80
2022-12-08T13:58:40.374Z,20.10
2022-12-08T14:01:21.709Z,15.80
2022-12-08T14:06:50.333Z,16.90
2022-12-08T14:09:22.355Z,22.20
2022-12-08T14:12:03.024Z,19.30
2022-12-08T14:15:02.008Z,19.70
2022-12-08T14:17:27.289Z,20.20
2022-12-08T14:19:57.094Z,21.60
2022-12-08T14:22:24.727Z,18.70
2022-12-08T14:24:54.187Z,20.70
2022-12-08T14:27:24.389Z,21.10
2022-12-08T14:29:55.496Z,20.90
2022-12-08T14:32:40.004Z,19.00
2022-12-08T14:35:07.806Z,17.80
2022-12-08T14:37:41.144Z,16.90
2022-12-08T14:40:12.045Z,18.00
2022-12-08T14:42:46.360Z,18.50
2022-12-08T14:45:17.051Z,23.20
2022-12-08T14:47:44.834Z,22.40
2022-12-08T14:50:41.714Z,23.50
2022-12-08T14:53:15.614Z,24.10
2022-12-08T14:55:46.003Z,29.00
2022-12-08T14:58:19.996Z,31.90
2022-12-08T15:00:52.061Z,29.00
2022-12-08T15:03:22.029Z,22.20
2022-12-08T15:06:00.391Z,22.90
2022-12-08T15:08:28.173Z,31.00
2022-12-08T15:11:23.483Z,33.80
2022-12-08T15:13:52.474Z,26.70
2022-12-08T15:16:43.785Z,23.10
2022-12-08T15:19:23.310Z,29.70
2022-12-08T15:21:51.237Z,25.20
2022-12-08T15:24:21.545Z,27.80
2022-12-08T15:26:50.393Z,25.80
2022-12-08T15:29:26.680Z,29.30
2022-12-08T15:31:59.930Z,25.80
2022-12-08T15:34:27.745Z,28.40
2022-12-08T15:36:55.429Z,29.10
2022-12-08T15:39:33.502Z,23.70
2022-12-08T15:42:02.468Z,25.80
2022-12-08T15:44:30.075Z,28.30
2022-12-08T15:46:58.626Z,27.20
2022-12-08T15:49:26.440Z,26.00
2022-12-08T15:52:02.017Z,27.20
2022-12-08T15:54:35.720Z,20.10
2022-12-08T15:57:19.261Z,26.80
2022-12-08T15:59:51.028Z,24.70
2022-12-08T16:02:22.518Z,24.90
2022-12-08T16:07:38.666Z,24.20
2022-12-08T16:10:08.544Z,29.00
2022-12-08T16:13:13.908Z,28.10
2022-12-08T16:18:21.855Z,24.60
2022-12-08T16:23:45.465Z,18.20
2022-12-08T16:29:18.543Z,26.00
2022-12-08T16:31:47.041Z,23.80
2022-12-08T16:34:14.969Z,26.70
2022-12-08T16:36:42.556Z,29.20
2022-12-08T16:39:13.152Z,25.70
2022-12-08T16:41:40.817Z,27.00
2022-12-08T16:44:08.445Z,30.80
2022-12-08T16:46:36.081Z,21.70
2022-12-08T16:49:07.590Z,22.60
2022-12-08T16:51:35.241Z,20.10
2022-12-08T16:54:02.885Z,21.30
2022-12-08T16:56:33.039Z,24.10
2022-12-08T16:59:01.949Z,20.90
2022-12-08T17:01:29.847Z,22.80
2022-12-08T17:06:45.483Z,23.80
2022-12-08T17:09:13.140Z,22.60
2022-12-08T17:11:43.251Z,18.00
2022-12-08T17:14:16.384Z,16.10
2022-12-08T17:16:45.593Z,20.80
2022-12-08T17:19:14.357Z,25.60
2022-12-08T17:21:42.665Z,21.10
2022-12-08T17:24:10.596Z,25.90
2022-12-08T17:26:38.524Z,23.20
2022-12-08T17:29:06.175Z,23.40
2022-12-08T17:31:34.003Z,24.40
2022-12-08T17:34:03.216Z,26.80
2022-12-08T17:36:31.567Z,23.20
2022-12-08T17:39:00.119Z,23.90
2022-12-08T17:41:28.701Z,22.30
2022-12-08T17:43:56.793Z,25.00
2022-12-08T17:46:24.567Z,22.00
2022-12-08T17:48:52.246Z,22.00
2022-12-08T17:51:19.863Z,21.80
2022-12-08T17:53:47.498Z,24.20
2022-12-08T17:56:19.038Z,25.00
2022-12-08T17:58:52.890Z,24.40
2022-12-08T18:01:23.888Z,21.70
2022-12-08T18:03:51.740Z,23.50
2022-12-08T18:06:20.000Z,22.30
2022-12-08T18:08:47.766Z,30.10
2022-12-08T18:11:19.848Z,41.30
2022-12-08T18:13:49.491Z,42.50
2022-12-08T18:16:18.738Z,40.90
2022-12-08T18:18:47.116Z,92.40
2022-12-08T18:21:22.797Z,34.90
2022-12-08T18:23:51.505Z,28.80
2022-12-08T18:26:19.972Z,24.80
2022-12-08T18:28:47.764Z,19.90
2022-12-08T18:31:19.079Z,22.90
2022-12-08T18:33:47.858Z,22.40
2022-12-08T18:36:25.309Z,16.80
2022-12-08T18:38:53.357Z,19.20
2022-12-08T18:41:23.539Z,14.10
2022-12-08T18:43:51.840Z,18.50
2022-12-08T18:46:19.802Z,17.80
2022-12-08T18:48:49.569Z,17.00
2022-12-08T18:51:22.693Z,17.90
2022-12-08T18:53:51.428Z,17.20
2022-12-08T18:56:28.298Z,20.90
2022-12-08T18:59:02.849Z,16.50
2022-12-08T19:01:32.976Z,18.10
2022-12-08T19:06:51.273Z,19.70
2022-12-08T19:09:19.316Z,19.80
2022-12-08T19:11:46.943Z,21.40
2022-12-08T19:14:14.532Z,18.20
2022-12-08T19:16:42.228Z,22.90
2022-12-08T19:19:09.822Z,19.80
2022-12-08T19:21:41.395Z,20.00
2022-12-08T19:24:12.628Z,17.80
2022-12-08T19:26:40.425Z,21.30
2022-12-08T19:29:08.278Z,23.30
2022-12-08T19:31:36.047Z,19.70
2022-12-08T19:34:03.698Z,24.90
2022-12-08T19:36:31.335Z,22.20
2022-12-08T19:38:58.891Z,27.60
2022-12-08T19:41:26.939Z,25.40
2022-12-08T19:43:54.517Z,24.80
2022-12-08T19:46:22.212Z,23.30
2022-12-08T19:48:49.899Z,23.20
2022-12-08T19:51:17.490Z,21.50
2022-12-08T19:53:47.747Z,21.70
2022-12-08T19:56:15.720Z,27.20
2022-12-08T19:58:43.406Z,22.60
2022-12-08T20:01:11.091Z,19.40
2022-12-08T20:03:38.905Z,22.30
2022-12-08T20:06:06.539Z,22.00
2022-12-08T20:08:34.213Z,24.00
2022-12-08T20:11:01.859Z,25.60
2022-12-08T20:13:29.446Z,23.60
2022-12-08T20:15:57.587Z,23.10
2022-12-08T20:18:25.264Z,21.90
2022-12-08T20:20:52.872Z,22.20
2022-12-08T20:23:21.654Z,25.10
2022-12-08T20:25:49.286Z,22.80
2022-12-08T20:28:16.998Z,24.40
2022-12-08T20:30:45.729Z,23.80
2022-12-08T20:33:14.013Z,23.50
2022-12-08T20:35:42.392Z,25.90
2022-12-08T20:38:11.073Z,23.00
2022-12-08T20:40:44.356Z,25.70
2022-12-08T20:43:12.015Z,24.10
2022-12-08T20:45:39.604Z,24.90
2022-12-08T20:48:07.346Z,24.90
2022-12-08T20:50:35.028Z,27.20
2022-12-08T20:53:02.805Z,26.20
2022-12-08T20:55:30.611Z,26.20
2022-12-08T20:57:58.245Z,28.70
2022-12-08T21:00:26.016Z,26.00
2022-12-08T21:02:56.828Z,26.50
2022-12-08T21:05:25.055Z,27.40
2022-12-08T21:07:53.119Z,26.70
2022-12-08T21:10:20.775Z,25.80
2022-12-08T21:12:48.544Z,26.60
2022-12-08T21:15:16.428Z,26.00
2022-12-08T21:17:44.142Z,24.20
2022-12-08T21:20:12.158Z,25.40
2022-12-08T21:22:40.243Z,27.00
2022-12-08T21:25:08.867Z,27.10
2022-12-08T21:27:37.803Z,24.40
2022-12-08T21:30:07.999Z,25.20
2022-12-08T21:32:37.934Z,30.40
2022-12-08T21:35:07.066Z,24.60
2022-12-08T21:37:35.223Z,29.50
2022-12-08T21:40:03.200Z,26.90
2022-12-08T21:42:34.312Z,25.00
2022-12-08T21:45:02.466Z,25.00
2022-12-08T21:47:30.239Z,28.60
2022-12-08T21:49:58.119Z,28.90
2022-12-08T21:52:26.341Z,24.20
2022-12-08T21:54:53.949Z,27.20
2022-12-08T21:57:21.877Z,24.10
2022-12-08T21:59:49.727Z,23.10
2022-12-08T22:02:22.233Z,30.30
2022-12-08T22:04:50.933Z,26.90
2022-12-08T22:07:20.650Z,29.10
2022-12-08T22:09:48.444Z,27.30
2022-12-08T22:12:16.228Z,29.30
2022-12-08T22:14:44.092Z,28.00
2022-12-08T22:17:11.849Z,25.20
2022-12-08T22:19:39.484Z,23.20
2022-12-08T22:22:07.176Z,26.90
2022-12-08T22:24:34.871Z,26.50
2022-12-08T22:27:02.726Z,27.90
2022-12-08T22:29:30.414Z,26.40
2022-12-08T22:31:58.229Z,26.10
2022-12-08T22:34:25.893Z,23.40
2022-12-08T22:36:53.472Z,28.30
2022-12-08T22:39:21.133Z,29.00
2022-12-08T22:41:49.101Z,29.60
2022-12-08T22:44:16.929Z,26.40
2022-12-08T22:46:44.985Z,27.70
2022-12-08T22:49:12.715Z,30.70
2022-12-08T22:51:40.383Z,30.60
2022-12-08T22:54:10.644Z,27.90
2022-12-08T22:56:38.533Z,30.10
2022-12-08T22:59:06.290Z,27.50
2022-12-08T23:01:34.619Z,26.60
2022-12-08T23:04:20.208Z,24.10
2022-12-08T23:06:48.246Z,26.40
2022-12-08T23:09:16.020Z,28.10
2022-12-08T23:11:43.718Z,29.50
2022-12-08T23:14:11.300Z,29.20
2022-12-08T23:16:39.055Z,27.00
2022-12-08T23:19:06.773Z,26.60
2022-12-08T23:21:34.391Z,30.20
2022-12-08T23:24:02.681Z,29.40
2022-12-08T23:26:32.091Z,32.10
2022-12-08T23:29:00.276Z,31.50
2022-12-08T23:31:28.165Z,28.10
2022-12-08T23:33:56.056Z,32.10
2022-12-08T23:36:24.462Z,28.80
2022-12-08T23:38:53.297Z,28.20
2022-12-08T23:41:21.407Z,28.00
2022-12-08T23:43:51.306Z,29.40
2022-12-08T23:46:21.124Z,28.50
2022-12-08T23:48:50.364Z,29.10
2022-12-08T23:51:18.703Z,29.50
2022-12-08T23:53:46.421Z,26.00
2022-12-08T23:56:16.883Z,30.50
2022-12-08T23:58:45.984Z,31.70
